Time;durP1;ratioP1;P1;durP2;ratioP2;P2;SDS_P1;SDS_P2;PMS_P1;PMS_P2;Temp;Humidity;BMP_temperature;BMP_pressure;BME280_temperature;BME280_humidity;BME280_pressure;Samples;Min_cycle;Max_cycle;Signal;HPM_P1;HPM_P2
2022/09/27 00:00:06;;;;;;;9.15;1.33;;;11.20;99.90;;;;;;5058505;28;20049;-63
2022/09/27 00:02:33;;;;;;;3.78;0.82;;;11.20;99.90;;;;;;5056018;28;20115;-63
2022/09/27 00:05:00;;;;;;;7.00;0.90;;;11.20;99.90;;;;;;5060508;28;20045;-63
2022/09/27 00:07:27;;;;;;;7.10;2.20;;;11.20;99.90;;;;;;5052868;28;20048;-61
2022/09/27 00:09:54;;;;;;;8.80;2.55;;;11.20;99.90;;;;;;5063052;28;20111;-63
2022/09/27 00:12:20;;;;;;;9.80;2.22;;;11.10;99.90;;;;;;5053272;28;20121;-63
2022/09/27 00:14:47;;;;;;;8.02;0.98;;;11.10;99.90;;;;;;5062924;28;20480;-62
2022/09/27 00:17:14;;;;;;;8.20;1.45;;;11.10;99.90;;;;;;5052576;28;20055;-63
2022/09/27 00:19:41;;;;;;;4.45;1.10;;;11.10;99.90;;;;;;5063160;28;20404;-62
2022/09/27 00:22:08;;;;;;;6.20;1.48;;;11.10;99.90;;;;;;5051748;28;20551;-62
2022/09/27 00:24:34;;;;;;;4.65;1.13;;;11.10;99.90;;;;;;4685306;28;10000429;-63
2022/09/27 00:27:01;;;;;;;4.15;1.02;;;11.10;99.90;;;;;;5051564;28;20056;-63
2022/09/27 00:29:28;;;;;;;6.25;1.15;;;11.10;99.90;;;;;;5058544;28;20127;-62
2022/09/27 00:31:55;;;;;;;5.45;1.00;;;11.10;99.90;;;;;;5017779;28;20049;-63
2022/09/27 00:34:23;;;;;;;4.45;0.98;;;11.10;99.90;;;;;;5061938;28;20166;-62
2022/09/27 00:36:50;;;;;;;6.65;1.40;;;11.10;99.90;;;;;;5052395;28;20079;-63
2022/09/27 00:39:17;;;;;;;6.07;1.30;;;11.10;99.90;;;;;;5059704;28;20045;-62
2022/09/27 00:41:44;;;;;;;5.68;0.90;;;11.10;99.90;;;;;;5050664;28;20140;-62
2022/09/27 00:44:32;;;;;;;6.50;1.13;;;11.10;99.90;;;;;;5055879;28;20509;-63
2022/09/27 00:47:04;;;;;;;2.47;0.80;;;11.10;99.90;;;;;;5055147;28;20148;-63
2022/09/27 00:49:46;;;;;;;4.18;0.90;;;11.10;99.90;;;;;;5058853;28;20135;-62
2022/09/27 00:52:24;;;;;;;8.27;1.77;;;11.20;99.90;;;;;;5053368;28;20407;-63
2022/09/27 00:54:52;;;;;;;4.13;0.63;;;11.20;99.90;;;;;;5059286;28;20049;-62
2022/09/27 00:57:19;;;;;;;5.82;1.33;;;11.20;99.90;;;;;;5053948;28;20056;-62
2022/09/27 01:00:00;;;;;;;6.63;1.13;;;11.20;99.90;;;;;;5056800;28;20071;-62
2022/09/27 01:02:27;;;;;;;5.97;1.23;;;11.10;99.90;;;;;;5050497;28;20124;-62
2022/09/27 01:04:54;;;;;;;5.65;1.23;;;11.10;99.90;;;;;;5057617;28;20117;-63
2022/09/27 01:07:21;;;;;;;5.30;1.15;;;11.00;99.90;;;;;;5057526;28;20049;-63
2022/09/27 01:09:48;;;;;;;5.55;1.00;;;11.00;99.90;;;;;;5054671;28;20051;-63
2022/09/27 01:12:18;;;;;;;7.32;1.75;;;11.00;99.90;;;;;;5050195;28;20079;-63
2022/09/27 01:15:04;;;;;;;11.90;1.70;;;11.00;99.90;;;;;;5051628;28;20067;-63
2022/09/27 01:17:55;;;;;;;7.60;1.20;;;11.00;99.90;;;;;;5058023;28;20056;-63
2022/09/27 01:20:22;;;;;;;6.05;1.33;;;11.00;99.90;;;;;;5056548;28;20511;-63
2022/09/27 01:23:02;;;;;;;11.05;1.05;;;11.10;99.90;;;;;;5058619;28;20049;-63
2022/09/27 01:25:53;;;;;;;7.40;1.20;;;11.00;99.90;;;;;;5055441;28;20538;-63
2022/09/27 01:28:31;;;;;;;7.07;0.90;;;11.00;99.90;;;;;;5054647;28;20045;-63
2022/09/27 01:31:18;;;;;;;3.15;0.70;;;11.00;99.90;;;;;;5045164;28;20767;-63
2022/09/27 01:34:02;;;;;;;7.80;1.95;;;10.90;99.90;;;;;;5055520;28;20044;-62
2022/09/27 01:36:37;;;;;;;5.20;1.00;;;11.00;99.90;;;;;;5064398;28;20050;-63
2022/09/27 01:39:44;;;;;;;9.35;1.17;;;11.00;99.90;;;;;;5073572;28;20411;-63
2022/09/27 01:42:17;;;;;;;4.65;0.95;;;11.00;99.90;;;;;;5053939;28;20132;-62
2022/09/27 01:45:01;;;;;;;7.32;1.20;;;11.00;99.90;;;;;;5075043;28;20044;-62
2022/09/27 01:47:31;;;;;;;10.95;3.58;;;10.90;99.90;;;;;;5070409;28;20136;-62
2022/09/27 01:50:02;;;;;;;7.55;0.82;;;10.90;99.90;;;;;;5054947;28;20045;-62
2022/09/27 01:52:50;;;;;;;8.63;1.20;;;10.90;99.90;;;;;;5054130;28;20051;-62
2022/09/27 01:55:18;;;;;;;5.47;1.08;;;10.90;99.90;;;;;;5054057;28;20131;-62
2022/09/27 01:57:48;;;;;;;4.82;1.00;;;10.90;99.90;;;;;;5055466;28;20143;-62
2022/09/27 02:00:15;;;;;;;6.32;1.17;;;10.90;99.90;;;;;;5071612;28;20045;-62
2022/09/27 02:03:06;;;;;;;8.05;1.52;;;10.90;99.90;;;;;;5049210;28;20539;-62
2022/09/27 02:05:44;;;;;;;6.57;1.20;;;10.80;99.90;;;;;;5044200;28;20048;-62
2022/09/27 02:08:16;;;;;;;2.50;0.70;;;10.80;99.90;;;;;;5051988;28;20504;-62
2022/09/27 02:10:43;;;;;;;6.72;1.60;;;10.80;99.90;;;;;;5045081;28;20059;-62
2022/09/27 02:13:18;;;;;;;4.28;0.85;;;10.60;99.90;;;;;;5059787;28;20128;-64
2022/09/27 02:16:16;;;;;;;3.75;0.90;;;10.60;99.90;;;;;;5071831;28;20348;-63
2022/09/27 02:19:03;;;;;;;11.73;1.33;;;10.50;99.90;;;;;;5053273;28;20048;-62
2022/09/27 02:21:49;;;;;;;5.28;0.80;;;10.50;99.90;;;;;;5079050;28;20054;-62
2022/09/27 02:24:24;;;;;;;3.60;0.70;;;10.50;99.90;;;;;;5058961;28;20199;-62
2022/09/27 02:26:57;;;;;;;4.25;0.93;;;10.40;99.90;;;;;;5057622;28;20518;-62
2022/09/27 02:29:32;;;;;;;5.30;0.98;;;10.50;99.90;;;;;;5068240;28;20300;-62
2022/09/27 02:31:59;;;;;;;4.82;0.70;;;10.40;99.90;;;;;;5057528;28;20056;-62
2022/09/27 02:34:27;;;;;;;6.00;0.85;;;10.40;99.90;;;;;;5066789;28;20045;-63
2022/09/27 02:36:53;;;;;;;5.15;1.65;;;10.40;99.90;;;;;;5038313;28;20040;-62
2022/09/27 02:39:20;;;;;;;6.55;1.40;;;10.40;99.90;;;;;;5066322;28;20102;-63
2022/09/27 02:41:48;;;;;;;2.58;0.60;;;10.40;99.90;;;;;;5055273;28;20053;-63
2022/09/27 02:44:16;;;;;;;7.80;1.17;;;10.40;99.90;;;;;;5059989;28;20048;-63
2022/09/27 02:47:16;;;;;;;3.25;0.80;;;10.40;99.90;;;;;;5074268;28;20105;-63
2022/09/27 02:49:48;;;;;;;9.70;1.65;;;10.40;99.90;;;;;;5067036;28;20053;-63
2022/09/27 02:52:28;;;;;;;5.82;0.82;;;10.40;99.90;;;;;;5056122;28;20057;-63
2022/09/27 02:55:17;;;;;;;5.45;0.93;;;10.40;99.90;;;;;;5068122;28;20100;-63
2022/09/27 02:57:47;;;;;;;7.85;1.27;;;10.40;99.90;;;;;;5074360;28;20139;-64
2022/09/27 03:00:19;;;;;;;6.57;0.85;;;10.30;99.90;;;;;;5061879;28;20058;-63
2022/09/27 03:03:01;;;;;;;5.15;1.02;;;10.30;99.90;;;;;;5072143;28;20059;-63
2022/09/27 03:05:31;;;;;;;5.13;1.05;;;10.30;99.90;;;;;;5070510;28;20435;-63
2022/09/27 03:07:57;;;;;;;3.38;0.82;;;10.20;99.90;;;;;;5055114;28;20088;-63
2022/09/27 03:10:26;;;;;;;6.30;1.27;;;10.10;99.90;;;;;;5061705;28;20526;-62
2022/09/27 03:12:53;;;;;;;5.82;0.88;;;10.10;99.90;;;;;;5071872;28;20452;-63
2022/09/27 03:15:20;;;;;;;4.55;1.08;;;10.10;99.90;;;;;;5054639;28;20045;-62
2022/09/27 03:17:46;;;;;;;7.85;1.23;;;10.10;99.90;;;;;;5072143;28;20044;-62
2022/09/27 03:20:13;;;;;;;5.65;1.35;;;10.00;99.90;;;;;;5071419;28;20044;-62
2022/09/27 03:22:41;;;;;;;7.28;1.13;;;10.00;99.90;;;;;;5051803;28;20041;-63
2022/09/27 03:25:08;;;;;;;5.38;1.13;;;9.90;99.90;;;;;;5062371;28;20159;-63
2022/09/27 03:27:35;;;;;;;7.25;1.30;;;9.80;99.90;;;;;;5054820;28;20059;-63
2022/09/27 03:30:01;;;;;;;20.10;3.13;;;9.80;99.90;;;;;;5054646;28;20051;-63
2022/09/27 03:32:30;;;;;;;6.72;1.20;;;9.80;99.90;;;;;;5068044;28;20128;-63
2022/09/27 03:34:56;;;;;;;9.68;2.50;;;9.80;99.90;;;;;;5066055;28;20135;-63
2022/09/27 03:37:23;;;;;;;4.30;1.63;;;9.80;99.90;;;;;;5066756;28;20050;-63
2022/09/27 03:39:50;;;;;;;7.60;1.30;;;9.70;99.90;;;;;;5068197;28;20127;-63
2022/09/27 03:42:17;;;;;;;7.30;1.00;;;9.70;99.90;;;;;;5063396;28;20495;-63
2022/09/27 03:44:44;;;;;;;9.35;2.58;;;9.70;99.90;;;;;;5068117;28;20041;-63
2022/09/27 03:47:10;;;;;;;5.45;1.27;;;9.60;99.90;;;;;;5062766;28;20505;-63
2022/09/27 03:49:37;;;;;;;9.55;1.80;;;9.60;99.90;;;;;;5053963;28;20045;-63
2022/09/27 03:52:04;;;;;;;7.68;2.45;;;9.60;99.90;;;;;;5062580;28;20135;-63
2022/09/27 03:54:32;;;;;;;10.23;1.45;;;9.60;99.90;;;;;;5052097;28;20041;-63
2022/09/27 03:56:58;;;;;;;6.57;1.13;;;9.50;99.90;;;;;;5063872;28;20045;-63
2022/09/27 03:59:25;;;;;;;3.75;0.90;;;9.50;99.90;;;;;;5052531;28;20049;-63
2022/09/27 04:01:52;;;;;;;7.93;1.40;;;9.50;99.90;;;;;;5063301;28;20049;-63
2022/09/27 04:04:20;;;;;;;5.25;1.00;;;9.40;99.90;;;;;;5061733;28;20080;-63
2022/09/27 04:06:47;;;;;;;5.70;1.13;;;9.40;99.90;;;;;;5057779;28;20044;-63
2022/09/27 04:09:13;;;;;;;12.13;1.17;;;9.40;99.90;;;;;;5052480;28;20048;-63
2022/09/27 04:11:40;;;;;;;12.95;1.55;;;9.30;99.90;;;;;;5061213;28;20051;-63
2022/09/27 04:14:07;;;;;;;9.43;1.98;;;9.30;99.90;;;;;;5052688;28;20519;-62
2022/09/27 04:16:34;;;;;;;11.65;1.02;;;9.30;99.90;;;;;;5054899;28;20069;-62
2022/09/27 04:19:01;;;;;;;8.98;1.67;;;9.30;99.90;;;;;;5067055;28;20448;-62
2022/09/27 04:21:28;;;;;;;11.05;1.45;;;9.30;99.90;;;;;;5065656;28;20087;-62
2022/09/27 04:23:55;;;;;;;9.65;1.70;;;9.30;99.90;;;;;;5065508;28;20055;-63
2022/09/27 04:26:22;;;;;;;10.00;1.35;;;9.30;99.90;;;;;;5067924;28;20045;-62
2022/09/27 04:28:50;;;;;;;7.03;1.65;;;9.30;99.90;;;;;;5063129;28;20499;-63
2022/09/27 04:31:20;;;;;;;7.30;1.45;;;9.30;99.90;;;;;;5069378;28;20040;-63
2022/09/27 04:33:47;;;;;;;9.48;1.95;;;9.20;99.90;;;;;;5034169;28;20491;-63
2022/09/27 04:36:27;;;;;;;11.98;2.60;;;9.20;99.90;;;;;;5035775;28;20052;-63
2022/09/27 04:38:54;;;;;;;7.47;1.20;;;9.20;99.90;;;;;;5024637;28;20043;-63
2022/09/27 04:41:22;;;;;;;13.98;2.63;;;9.20;99.90;;;;;;5035238;28;20075;-63
2022/09/27 04:43:51;;;;;;;6.35;1.10;;;9.20;99.90;;;;;;5062700;28;20408;-63
2022/09/27 04:46:24;;;;;;;10.88;2.70;;;9.30;99.90;;;;;;5036110;28;20049;-63
2022/09/27 04:48:51;;;;;;;6.65;1.65;;;9.30;99.90;;;;;;5037488;28;20075;-63
2022/09/27 04:51:18;;;;;;;10.07;1.70;;;9.30;99.90;;;;;;5071516;28;20072;-63
2022/09/27 04:53:46;;;;;;;12.07;1.67;;;9.40;99.90;;;;;;5032591;28;20517;-62
2022/09/27 04:56:13;;;;;;;8.00;1.42;;;9.40;99.90;;;;;;5033166;28;20049;-63
2022/09/27 04:58:39;;;;;;;8.60;1.65;;;9.40;99.90;;;;;;5038891;28;20048;-63
2022/09/27 05:01:07;;;;;;;8.48;2.08;;;9.50;99.90;;;;;;5061079;28;20056;-63
2022/09/27 05:03:34;;;;;;;5.35;1.23;;;9.50;99.90;;;;;;5044285;28;20119;-63
2022/09/27 05:06:01;;;;;;;7.45;1.77;;;9.50;99.90;;;;;;5044908;28;20055;-64
2022/09/27 05:08:28;;;;;;;4.50;1.40;;;9.50;99.90;;;;;;5061551;28;20049;-63
2022/09/27 05:10:55;;;;;;;26.15;2.60;;;9.50;99.90;;;;;;5064312;28;20223;-63
2022/09/27 05:13:22;;;;;;;5.68;1.50;;;9.50;99.90;;;;;;5060176;28;20047;-62
2022/09/27 05:15:49;;;;;;;8.85;1.60;;;9.50;99.90;;;;;;5043037;28;20083;-62
2022/09/27 05:18:16;;;;;;;16.80;2.13;;;9.50;99.90;;;;;;5062758;28;20154;-62
2022/09/27 05:20:43;;;;;;;8.65;1.50;;;9.50;99.90;;;;;;5061605;28;20056;-63
2022/09/27 05:23:10;;;;;;;7.05;1.42;;;9.60;99.90;;;;;;5025803;28;20045;-63
2022/09/27 05:25:37;;;;;;;13.30;1.23;;;9.50;99.90;;;;;;5042936;28;20088;-63
2022/09/27 05:28:05;;;;;;;8.13;2.55;;;9.60;99.90;;;;;;5058669;28;20041;-63
2022/09/27 05:30:31;;;;;;;6.53;1.20;;;9.60;99.90;;;;;;5063251;28;20102;-63
2022/09/27 05:32:58;;;;;;;11.40;1.65;;;9.60;99.90;;;;;;5060851;28;20059;-63
2022/09/27 05:35:26;;;;;;;6.97;1.10;;;9.60;99.90;;;;;;5052231;28;20061;-64
2022/09/27 05:37:54;;;;;;;4.88;1.73;;;9.70;99.90;;;;;;5010772;28;20489;-64
2022/09/27 05:40:24;;;;;;;7.45;1.58;;;9.60;99.90;;;;;;5062720;28;20404;-66
2022/09/27 05:43:07;;;;;;;4.68;1.83;;;9.60;99.90;;;;;;5051842;28;20041;-66
2022/09/27 05:45:34;;;;;;;17.77;2.20;;;9.70;99.90;;;;;;5044821;28;20045;-66
2022/09/27 05:48:01;;;;;;;4.85;1.17;;;9.70;99.90;;;;;;5051189;28;20144;-65
2022/09/27 05:50:31;;;;;;;9.32;1.25;;;9.70;99.90;;;;;;5055164;28;20052;-65
2022/09/27 05:52:58;;;;;;;9.07;1.50;;;9.70;99.90;;;;;;5050833;28;20041;-65
2022/09/27 05:55:25;;;;;;;4.75;1.15;;;9.80;99.90;;;;;;5045155;28;20534;-65
2022/09/27 05:58:03;;;;;;;7.47;1.05;;;9.80;99.90;;;;;;4671940;28;10000586;-67
2022/09/27 06:00:30;;;;;;;5.93;2.08;;;9.80;99.90;;;;;;5025413;28;20084;-65
2022/09/27 06:02:59;;;;;;;8.77;1.50;;;9.90;99.90;;;;;;4996832;28;20064;-65
2022/09/27 06:05:27;;;;;;;9.27;2.33;;;9.90;99.90;;;;;;5039772;28;20790;-65
2022/09/27 06:08:01;;;;;;;6.93;1.52;;;9.90;99.90;;;;;;5030870;28;20135;-66
2022/09/27 06:10:30;;;;;;;;;;;9.90;99.90;;;;;;5025400;28;20048;-65
2022/09/27 06:13:08;;;;;;;5.93;1.42;;;9.90;99.90;;;;;;5048390;28;20359;-65
2022/09/27 06:15:38;;;;;;;8.10;2.67;;;10.00;99.90;;;;;;5032764;28;20408;-64
2022/09/27 06:18:10;;;;;;;7.55;1.58;;;10.10;99.90;;;;;;5033579;28;20155;-66
2022/09/27 06:20:37;;;;;;;5.30;1.17;;;10.00;99.90;;;;;;5026793;28;20055;-63
2022/09/27 06:23:08;;;;;;;5.40;1.17;;;9.90;99.90;;;;;;5048198;28;20052;-65
2022/09/27 06:25:35;;;;;;;5.97;1.85;;;10.00;99.90;;;;;;5064022;28;20067;-64
2022/09/27 06:28:02;;;;;;;12.43;1.80;;;10.10;99.90;;;;;;5064125;28;20458;-64
2022/09/27 06:30:31;;;;;;;8.43;1.40;;;10.10;99.90;;;;;;5048588;28;20144;-65
2022/09/27 06:32:59;;;;;;;11.20;2.55;;;10.20;99.90;;;;;;5043992;28;20099;-65
2022/09/27 06:35:28;;;;;;;6.65;1.70;;;10.10;99.90;;;;;;5050532;28;20044;-64
2022/09/27 06:37:55;;;;;;;7.93;1.17;;;10.20;99.90;;;;;;5059864;28;20135;-63
2022/09/27 06:40:23;;;;;;;9.00;1.70;;;10.20;99.90;;;;;;5068845;28;20051;-63
2022/09/27 06:42:50;;;;;;;4.60;1.02;;;10.20;99.90;;;;;;5059726;28;20491;-63
2022/09/27 06:45:17;;;;;;;5.72;1.23;;;10.10;99.90;;;;;;5069777;28;20066;-65
2022/09/27 06:47:43;;;;;;;8.13;1.65;;;10.20;99.90;;;;;;5028126;28;20412;-63
2022/09/27 06:50:12;;;;;;;7.38;1.45;;;10.20;99.90;;;;;;5050451;28;20045;-64
2022/09/27 06:52:45;;;;;;;6.20;0.88;;;10.20;99.90;;;;;;5038675;28;20106;-63
2022/09/27 06:55:12;;;;;;;2.83;1.40;;;10.20;99.90;;;;;;5036298;28;20052;-63
2022/09/27 07:00:25;;;;;;;4.60;1.52;;;10.30;99.90;;;;;;5072338;28;20108;-65
2022/09/27 07:02:52;;;;;;;18.42;1.70;;;10.30;99.90;;;;;;5066729;28;20052;-63
2022/09/27 07:05:19;;;;;;;9.25;1.48;;;10.30;99.90;;;;;;5068587;28;20150;-65
2022/09/27 07:07:50;;;;;;;8.38;1.25;;;10.40;99.90;;;;;;5030487;28;20055;-65
2022/09/27 07:10:17;;;;;;;9.15;1.40;;;10.40;99.90;;;;;;5016752;28;20044;-63
2022/09/27 07:12:47;;;;;;;7.10;1.08;;;10.50;99.90;;;;;;5051818;28;20076;-64
2022/09/27 07:15:14;;;;;;;8.20;1.35;;;10.50;99.90;;;;;;5052475;28;20090;-65
2022/09/27 07:17:41;;;;;;;3.85;1.23;;;10.50;99.90;;;;;;5060623;28;20045;-64
2022/09/27 07:20:08;;;;;;;7.85;1.67;;;10.50;99.90;;;;;;5065730;28;20091;-62
2022/09/27 07:22:44;;;;;;;7.13;1.52;;;10.60;99.90;;;;;;5046692;28;20091;-61
2022/09/27 07:25:11;;;;;;;5.75;1.10;;;10.50;99.90;;;;;;5036354;28;20088;-62
2022/09/27 07:27:40;;;;;;;9.93;1.95;;;10.60;99.90;;;;;;5053666;28;20056;-63
2022/09/27 07:30:08;;;;;;;7.63;1.48;;;10.60;99.90;;;;;;5055552;28;20082;-63
2022/09/27 07:32:35;;;;;;;7.10;1.42;;;10.60;99.90;;;;;;5052586;28;20053;-62
2022/09/27 07:35:06;;;;;;;6.57;1.35;;;10.60;99.90;;;;;;5040048;28;20102;-64
2022/09/27 07:37:34;;;;;;;9.13;1.00;;;10.70;99.90;;;;;;5017145;28;20045;-65
2022/09/27 07:40:01;;;;;;;8.48;1.70;;;10.70;99.90;;;;;;5058975;28;20048;-65
2022/09/27 07:42:28;;;;;;;7.93;1.33;;;10.70;99.90;;;;;;5049611;28;20949;-63
2022/09/27 07:44:55;;;;;;;13.10;1.17;;;10.80;99.90;;;;;;5058568;28;20049;-66
2022/09/27 07:47:26;;;;;;;6.57;1.33;;;10.80;99.90;;;;;;5031891;28;20053;-64
2022/09/27 07:49:53;;;;;;;3.83;1.30;;;10.80;99.90;;;;;;5059415;28;20045;-63
2022/09/27 07:52:19;;;;;;;6.53;1.50;;;10.70;99.90;;;;;;5030896;28;20423;-63
2022/09/27 07:54:46;;;;;;;6.18;1.10;;;10.80;99.90;;;;;;5027209;28;20132;-64
2022/09/27 07:57:14;;;;;;;8.90;1.42;;;10.90;99.90;;;;;;5020005;28;20124;-63
2022/09/27 07:59:40;;;;;;;4.25;1.17;;;11.00;99.90;;;;;;5065961;28;20792;-63
2022/09/27 08:02:15;;;;;;;7.78;1.55;;;11.10;99.90;;;;;;5036563;28;20060;-63
2022/09/27 08:04:42;;;;;;;6.35;1.20;;;11.10;99.90;;;;;;5050405;28;20121;-64
2022/09/27 08:07:09;;;;;;;9.30;2.15;;;11.20;99.90;;;;;;5032839;28;20112;-63
2022/09/27 08:09:40;;;;;;;11.98;1.77;;;11.20;99.90;;;;;;4991890;28;20045;-63
2022/09/27 08:12:07;;;;;;;7.60;1.67;;;11.10;99.90;;;;;;5012608;28;20168;-64
2022/09/27 08:14:34;;;;;;;8.98;1.70;;;11.20;99.90;;;;;;5038060;28;20083;-64
2022/09/27 08:17:10;;;;;;;12.57;1.85;;;11.30;99.90;;;;;;5014717;28;20053;-63
2022/09/27 08:19:37;;;;;;;11.85;1.85;;;11.30;99.90;;;;;;5007374;28;20136;-63
2022/09/27 08:22:03;;;;;;;8.48;1.77;;;11.40;99.90;;;;;;5033287;28;20060;-63
2022/09/27 08:24:31;;;;;;;10.70;2.53;;;11.30;99.90;;;;;;5034364;28;20139;-64
2022/09/27 08:26:59;;;;;;;10.00;2.13;;;11.40;99.90;;;;;;5031564;28;20049;-64
2022/09/27 08:29:26;;;;;;;13.43;2.08;;;11.40;99.90;;;;;;5042290;28;20588;-64
2022/09/27 08:31:53;;;;;;;5.38;1.58;;;11.50;99.90;;;;;;5007385;28;20049;-64
2022/09/27 08:34:20;;;;;;;11.10;2.13;;;11.60;99.90;;;;;;5012040;28;20053;-63
2022/09/27 08:36:47;;;;;;;15.57;2.42;;;11.70;99.90;;;;;;5011698;28;20673;-63
2022/09/27 08:39:14;;;;;;;13.88;3.20;;;11.60;99.90;;;;;;5030739;28;20129;-64
2022/09/27 08:42:12;;;;;;;11.35;2.40;;;11.70;99.90;;;;;;5014952;28;20099;-63
2022/09/27 08:45:02;;;;;;;12.20;2.67;;;11.80;99.90;;;;;;5044851;28;20084;-64
2022/09/27 08:47:52;;;;;;;12.52;2.10;;;12.00;99.90;;;;;;5023806;28;20095;-63
2022/09/27 08:50:36;;;;;;;18.50;4.32;;;12.10;99.90;;;;;;5010393;28;20508;-63
2022/09/27 08:53:16;;;;;;;13.55;2.45;;;12.20;99.90;;;;;;4981448;28;20465;-64
2022/09/27 08:55:56;;;;;;;10.13;2.70;;;12.10;99.90;;;;;;5016160;28;20131;-64
2022/09/27 08:58:30;;;;;;;16.73;2.55;;;12.20;99.90;;;;;;5020202;28;20053;-64
2022/09/27 09:00:59;;;;;;;15.55;2.78;;;12.30;99.90;;;;;;5016804;28;20060;-63
2022/09/27 09:03:27;;;;;;;15.35;5.80;;;12.40;99.90;;;;;;5011075;28;20048;-63
2022/09/27 09:06:15;;;;;;;13.73;2.72;;;12.40;99.90;;;;;;5009932;28;20460;-63
2022/09/27 09:09:01;;;;;;;11.27;2.90;;;12.60;99.90;;;;;;5012260;28;20056;-64
2022/09/27 09:14:57;;;;;;;11.02;2.15;;;12.70;99.90;;;;;;5030288;28;20584;-64
2022/09/27 09:17:39;;;;;;;16.08;2.20;;;12.80;99.90;;;;;;5041707;28;20804;-62
2022/09/27 09:20:34;;;;;;;19.23;2.28;;;12.70;99.90;;;;;;5024723;28;20080;-63
2022/09/27 09:23:31;;;;;;;14.55;2.60;;;12.70;99.90;;;;;;5046216;28;20045;-62
2022/09/27 09:26:31;;;;;;;9.63;1.85;;;12.70;99.90;;;;;;5030179;28;20100;-65
2022/09/27 09:29:16;;;;;;;20.13;2.70;;;12.80;99.90;;;;;;5024899;28;20060;-63
2022/09/27 09:31:50;;;;;;;18.48;4.60;;;12.90;99.90;;;;;;5043506;28;20056;-63
2022/09/27 09:34:37;;;;;;;;;;;12.80;99.90;;;;;;5026698;28;20643;-63
2022/09/27 09:37:20;;;;;;;18.20;2.05;;;12.70;99.90;;;;;;5027286;28;19979;-64
2022/09/27 09:39:50;;;;;;;17.83;2.40;;;12.80;99.90;;;;;;5032452;28;20547;-63
2022/09/27 09:42:34;;;;;;;23.52;3.60;;;13.00;99.90;;;;;;5019296;28;20070;-63
2022/09/27 09:45:33;;;;;;;12.80;2.97;;;13.00;99.90;;;;;;5014317;28;20053;-64
2022/09/27 09:48:19;;;;;;;8.85;1.92;;;13.00;99.90;;;;;;5015120;28;20458;-63
2022/09/27 09:50:48;;;;;;;8.68;3.30;;;13.00;99.90;;;;;;5034080;28;20057;-63
2022/09/27 09:53:25;;;;;;;11.93;2.53;;;13.00;99.90;;;;;;5011869;28;20050;-63
2022/09/27 09:55:56;;;;;;;17.73;2.85;;;13.10;99.90;;;;;;5016405;28;20064;-62
2022/09/27 09:58:30;;;;;;;12.65;1.85;;;13.00;99.90;;;;;;5030674;28;20052;-63
2022/09/27 10:00:59;;;;;;;21.65;3.38;;;13.00;99.90;;;;;;5033385;28;20059;-63
2022/09/27 10:03:26;;;;;;;16.42;2.83;;;13.00;99.90;;;;;;5007801;28;20053;-63
2022/09/27 10:05:53;;;;;;;12.00;2.22;;;13.00;99.90;;;;;;5034113;28;20083;-63
2022/09/27 10:08:21;;;;;;;15.55;3.40;;;13.00;99.90;;;;;;5031213;28;20144;-64
2022/09/27 10:10:48;;;;;;;13.98;2.10;;;12.90;99.90;;;;;;5037870;28;20053;-63
2022/09/27 10:13:16;;;;;;;16.80;2.45;;;12.90;99.90;;;;;;5024707;28;20406;-63
2022/09/27 10:15:46;;;;;;;20.00;2.83;;;12.90;99.90;;;;;;5001950;28;20088;-63
2022/09/27 10:18:17;;;;;;;16.52;2.97;;;13.00;99.90;;;;;;5034127;28;20136;-64
2022/09/27 10:20:58;;;;;;;11.40;2.35;;;13.20;99.90;;;;;;4999181;28;20436;-64
2022/09/27 10:23:25;;;;;;;15.55;3.15;;;13.30;99.90;;;;;;5033140;28;20049;-64
2022/09/27 10:25:53;;;;;;;14.90;2.05;;;13.20;99.90;;;;;;5014721;28;20458;-64
2022/09/27 10:28:41;;;;;;;8.35;1.60;;;13.20;99.90;;;;;;5018440;28;20060;-64
2022/09/27 10:31:16;;;;;;;19.77;2.70;;;13.10;99.90;;;;;;5031768;28;20126;-64
2022/09/27 10:33:51;;;;;;;14.35;2.67;;;13.30;99.90;;;;;;5023055;28;20072;-64
2022/09/27 10:36:29;;;;;;;13.68;2.72;;;13.40;99.90;;;;;;5024437;28;20049;-63
2022/09/27 10:38:59;;;;;;;8.98;2.20;;;13.40;99.90;;;;;;5026286;28;20051;-64
2022/09/27 10:41:36;;;;;;;13.30;2.53;;;13.60;99.90;;;;;;5043084;28;20081;-64
2022/09/27 10:44:16;;;;;;;16.40;2.17;;;13.70;99.90;;;;;;4996998;28;20048;-64
2022/09/27 10:46:44;;;;;;;16.88;3.45;;;13.80;99.90;;;;;;5028209;28;20037;-64
2022/09/27 10:49:37;;;;;;;23.08;3.17;;;14.00;99.90;;;;;;5024084;28;20108;-64
2022/09/27 10:52:06;;;;;;;13.75;2.67;;;14.20;99.90;;;;;;5024689;28;20132;-64
2022/09/27 10:54:34;;;;;;;25.85;3.53;;;14.20;99.90;;;;;;5012041;28;20041;-64
2022/09/27 10:57:03;;;;;;;8.63;2.00;;;14.10;99.90;;;;;;5018295;28;20452;-64
2022/09/27 10:59:35;;;;;;;11.25;2.13;;;14.00;99.90;;;;;;5040620;28;20115;-63
2022/09/27 11:02:02;;;;;;;7.60;1.50;;;14.00;99.90;;;;;;5027495;28;20412;-63
2022/09/27 11:04:32;;;;;;;7.60;2.30;;;14.00;99.90;;;;;;5007513;28;20248;-63
2022/09/27 11:07:08;;;;;;;21.70;2.47;;;14.00;99.90;;;;;;5045678;28;20045;-63
2022/09/27 11:09:45;;;;;;;10.27;2.17;;;14.00;99.90;;;;;;5020446;28;20503;-63
2022/09/27 11:12:12;;;;;;;12.40;3.42;;;14.00;99.90;;;;;;5057213;28;20108;-63
2022/09/27 11:14:39;;;;;;;11.73;2.50;;;14.00;99.90;;;;;;5009882;28;20586;-63
2022/09/27 11:17:09;;;;;;;16.60;2.75;;;14.00;99.90;;;;;;5009383;28;20045;-64
2022/09/27 11:19:48;;;;;;;8.85;2.38;;;14.00;99.90;;;;;;5024585;28;20040;-64
2022/09/27 11:22:21;;;;;;;10.95;2.30;;;13.90;99.90;;;;;;5051635;28;20080;-63
2022/09/27 11:25:19;;;;;;;15.32;2.95;;;14.00;99.90;;;;;;5025403;28;20542;-63
2022/09/27 11:28:04;;;;;;;6.55;1.75;;;14.10;99.90;;;;;;5017658;28;20099;-63
2022/09/27 11:30:53;;;;;;;5.95;1.90;;;14.10;99.90;;;;;;5043578;28;20092;-64
2022/09/27 11:33:37;;;;;;;9.30;2.38;;;14.00;99.90;;;;;;5042960;28;20104;-64
2022/09/27 11:36:07;;;;;;;14.98;2.60;;;13.80;99.90;;;;;;5021305;28;20492;-64
2022/09/27 11:38:57;;;;;;;9.82;2.47;;;13.30;99.90;;;;;;5044269;28;20055;-65
2022/09/27 11:41:39;;;;;;;12.75;2.05;;;12.70;99.90;;;;;;5052086;28;20053;-65
2022/09/27 11:44:34;;;;;;;13.95;2.50;;;12.20;99.90;;;;;;5040726;28;20156;-65
2022/09/27 11:47:35;;;;;;;10.02;2.22;;;11.80;99.90;;;;;;5011016;28;20413;-65
2022/09/27 11:50:25;;;;;;;14.80;2.17;;;11.50;99.90;;;;;;5022658;28;20051;-65
2022/09/27 11:53:04;;;;;;;10.35;2.25;;;11.50;99.90;;;;;;5025097;28;20049;-65
2022/09/27 11:55:39;;;;;;;12.93;2.00;;;11.50;99.90;;;;;;5056702;28;20075;-65
2022/09/27 11:58:09;;;;;;;7.93;1.90;;;11.60;99.90;;;;;;5047946;28;20051;-65
2022/09/27 12:00:57;;;;;;;17.25;3.30;;;11.50;99.90;;;;;;5019055;28;20507;-64
2022/09/27 12:03:52;;;;;;;10.30;2.13;;;11.60;99.90;;;;;;5053889;28;20131;-64
2022/09/27 12:06:37;;;;;;;7.72;2.05;;;11.60;99.90;;;;;;5038015;28;20053;-64
2022/09/27 12:09:07;;;;;;;8.15;1.58;;;11.60;99.90;;;;;;5007689;28;20055;-64
2022/09/27 12:11:47;;;;;;;5.68;1.50;;;11.50;99.90;;;;;;5033447;28;20469;-64
2022/09/27 12:14:32;;;;;;;3.58;1.10;;;11.50;99.90;;;;;;5024912;28;20053;-64
2022/09/27 12:16:59;;;;;;;4.95;1.13;;;11.50;99.90;;;;;;5033724;28;20069;-64
2022/09/27 12:19:28;;;;;;;2.80;1.25;;;11.60;99.90;;;;;;5017626;28;20104;-64
2022/09/27 12:21:55;;;;;;;5.20;1.33;;;11.70;99.90;;;;;;5036270;28;20160;-64
2022/09/27 12:24:22;;;;;;;7.55;1.67;;;11.80;99.90;;;;;;5006191;28;20063;-64
2022/09/27 12:26:52;;;;;;;4.75;1.15;;;12.00;99.90;;;;;;5018880;28;20045;-64
2022/09/27 12:29:25;;;;;;;6.05;0.90;;;11.90;99.90;;;;;;5026023;28;20523;-63
2022/09/27 12:32:04;;;;;;;4.15;0.75;;;11.90;99.90;;;;;;5035581;28;20052;-63
2022/09/27 12:34:53;;;;;;;5.18;1.70;;;11.80;99.90;;;;;;5022220;28;20487;-67
2022/09/27 12:37:52;;;;;;;7.35;1.10;;;11.90;99.90;;;;;;5018378;28;20052;-63
2022/09/27 12:40:25;;;;;;;3.40;1.00;;;11.90;99.90;;;;;;4973512;28;20047;-64
2022/09/27 12:43:16;;;;;;;5.82;1.45;;;12.00;99.90;;;;;;5033046;28;20053;-62
2022/09/27 12:46:14;;;;;;;3.58;1.27;;;12.00;99.90;;;;;;5016892;28;20046;-62
2022/09/27 12:48:53;;;;;;;5.97;1.38;;;12.20;99.90;;;;;;5032434;28;20045;-66
2022/09/27 12:51:22;;;;;;;8.65;1.30;;;12.20;99.90;;;;;;5003858;28;20054;-63
2022/09/27 12:54:12;;;;;;;7.82;1.27;;;12.30;99.90;;;;;;5013680;28;20076;-65
2022/09/27 12:56:48;;;;;;;4.00;1.20;;;12.20;99.90;;;;;;5035529;28;20135;-63
2022/09/27 12:59:45;;;;;;;5.30;1.45;;;12.20;99.90;;;;;;5045025;28;20051;-63
2022/09/27 13:02:21;;;;;;;4.40;1.45;;;12.30;99.90;;;;;;4992583;28;20137;-63
2022/09/27 13:05:06;;;;;;;4.63;1.45;;;12.20;99.90;;;;;;5007894;28;20064;-63
2022/09/27 13:08:05;;;;;;;7.70;1.42;;;12.30;99.90;;;;;;5037791;28;20053;-64
2022/09/27 13:10:35;;;;;;;9.27;1.35;;;12.40;99.90;;;;;;5019778;28;20412;-64
2022/09/27 13:13:03;;;;;;;6.85;1.23;;;12.40;99.90;;;;;;5017578;28;20045;-64
2022/09/27 13:15:34;;;;;;;6.38;1.08;;;12.50;99.90;;;;;;5030382;28;20109;-64
2022/09/27 13:18:05;;;;;;;3.80;1.20;;;12.60;99.90;;;;;;5002859;28;20084;-65
2022/09/27 13:20:36;;;;;;;6.72;1.55;;;12.70;99.90;;;;;;5034821;28;20073;-64